createdAt,value
2019-05-16T00:01:19.259Z,68.00
2019-05-16T00:03:29.123Z,68.30
2019-05-16T00:05:50.833Z,68.41
2019-05-16T00:07:52.726Z,68.69
2019-05-16T00:10:04.357Z,69.09
2019-05-16T00:12:15.219Z,69.19
2019-05-16T00:14:28.037Z,69.47
2019-05-16T00:16:38.798Z,69.46
2019-05-16T00:18:49.739Z,69.90
2019-05-16T00:21:00.617Z,70.00
2019-05-16T00:23:11.531Z,69.75
2019-05-16T00:25:22.487Z,70.17
2019-05-16T00:27:33.327Z,70.32
2019-05-16T00:29:44.193Z,70.12
2019-05-16T00:31:55.030Z,70.27
2019-05-16T00:34:05.917Z,70.42
2019-05-16T00:36:18.857Z,70.88
2019-05-16T00:38:29.638Z,70.91
2019-05-16T00:40:40.470Z,71.16
2019-05-16T00:42:51.314Z,71.45
2019-05-16T00:45:04.261Z,71.64
2019-05-16T00:47:15.199Z,71.51
2019-05-16T00:49:28.093Z,72.24
2019-05-16T00:51:38.917Z,72.24
2019-05-16T00:53:49.780Z,72.33
2019-05-16T00:56:01.307Z,72.72
2019-05-16T00:58:12.228Z,72.57
2019-05-16T01:00:45.309Z,73.18
2019-05-16T01:02:57.868Z,73.44
2019-05-16T01:05:09.043Z,73.30
2019-05-16T01:07:19.930Z,73.40
2019-05-16T01:09:30.800Z,73.34
2019-05-16T01:11:41.637Z,73.39
2019-05-16T01:13:52.473Z,73.27
2019-05-16T01:16:03.429Z,73.38
2019-05-16T01:18:14.288Z,73.75
2019-05-16T01:20:25.144Z,73.77
2019-05-16T01:22:38.222Z,73.90
2019-05-16T01:24:49.260Z,73.91
2019-05-16T01:27:00.290Z,73.81
2019-05-16T01:29:11.814Z,74.19
2019-05-16T01:31:22.792Z,73.98
2019-05-16T01:33:33.836Z,73.76
2019-05-16T01:35:44.724Z,73.87
2019-05-16T01:37:57.952Z,74.47
2019-05-16T01:40:08.537Z,74.60
2019-05-16T01:42:19.373Z,74.54
2019-05-16T01:44:30.230Z,74.73
2019-05-16T01:46:42.970Z,74.51
2019-05-16T01:48:53.805Z,74.61
2019-05-16T01:51:04.660Z,74.87
2019-05-16T01:53:17.668Z,75.08
2019-05-16T01:55:28.608Z,75.30
2019-05-16T01:57:39.483Z,75.34
2019-05-16T01:59:50.314Z,75.49
2019-05-16T02:02:01.247Z,75.50
2019-05-16T02:04:12.433Z,75.82
2019-05-16T02:06:23.352Z,75.74
2019-05-16T02:08:34.194Z,75.85
2019-05-16T02:10:45.156Z,75.93
2019-05-16T02:12:58.148Z,76.29
2019-05-16T02:15:09.047Z,76.44
2019-05-16T02:17:19.903Z,76.39
2019-05-16T02:19:30.736Z,76.56
2019-05-16T02:21:41.600Z,76.79
2019-05-16T02:23:52.449Z,76.82
2019-05-16T02:26:03.400Z,76.91
2019-05-16T02:28:14.346Z,77.13
2019-05-16T02:30:25.354Z,77.04
2019-05-16T02:32:36.211Z,76.79
2019-05-16T02:34:47.038Z,76.53
2019-05-16T02:37:17.985Z,76.30
2019-05-16T02:39:11.436Z,76.10
2019-05-16T02:41:22.525Z,76.43
2019-05-16T02:43:33.363Z,76.54
2019-05-16T02:45:44.178Z,76.65
2019-05-16T02:47:55.037Z,76.66
2019-05-16T02:50:06.066Z,76.53
2019-05-16T02:52:16.948Z,76.87
2019-05-16T02:54:27.780Z,77.39
2019-05-16T02:56:41.483Z,77.47
2019-05-16T02:58:52.308Z,77.18
2019-05-16T03:01:03.407Z,76.88
2019-05-16T03:03:14.359Z,76.95
2019-05-16T03:05:25.493Z,77.14
2019-05-16T03:07:43.504Z,77.14
2019-05-16T03:09:51.531Z,77.45
2019-05-16T03:12:02.562Z,77.69
2019-05-16T03:14:13.449Z,77.71
2019-05-16T03:16:25.351Z,77.59
2019-05-16T03:18:41.127Z,77.58
2019-05-16T03:20:51.231Z,77.53
2019-05-16T03:23:02.588Z,77.93
2019-05-16T03:25:13.786Z,78.36
2019-05-16T03:27:24.757Z,78.39
2019-05-16T03:29:35.685Z,78.61
2019-05-16T03:31:46.537Z,78.90
2019-05-16T03:34:05.381Z,79.03
2019-05-16T03:36:14.810Z,79.10
2019-05-16T03:38:22.871Z,78.77
2019-05-16T03:40:34.217Z,78.71
2019-05-16T03:42:45.178Z,78.85
2019-05-16T03:44:56.019Z,79.00
2019-05-16T03:47:06.847Z,78.71
2019-05-16T03:49:17.702Z,78.84
2019-05-16T03:51:30.872Z,78.75
2019-05-16T03:53:41.326Z,78.62
2019-05-16T03:55:52.375Z,78.20
2019-05-16T03:58:03.340Z,77.84
2019-05-16T04:00:14.703Z,77.67
2019-05-16T04:02:25.516Z,77.66
2019-05-16T04:04:36.470Z,77.82
2019-05-16T04:06:50.138Z,77.52
2019-05-16T04:09:01.531Z,77.55
2019-05-16T04:11:13.106Z,77.63
2019-05-16T04:13:24.051Z,77.76
2019-05-16T04:15:34.995Z,77.71
2019-05-16T04:17:45.819Z,77.75
2019-05-16T04:19:56.724Z,77.91
2019-05-16T04:22:12.973Z,77.35
2019-05-16T04:24:23.836Z,78.05
2019-05-16T04:26:36.136Z,77.95
2019-05-16T04:28:47.128Z,78.02
2019-05-16T04:31:01.471Z,78.14
2019-05-16T04:33:11.078Z,78.32
2019-05-16T04:35:21.989Z,78.09
2019-05-16T04:37:32.919Z,77.90
2019-05-16T04:39:43.873Z,77.69
2019-05-16T04:41:54.746Z,77.51
2019-05-16T04:44:05.725Z,77.53
2019-05-16T04:46:16.576Z,78.29
2019-05-16T04:48:27.410Z,76.58
2019-05-16T04:50:41.799Z,75.70
2019-05-16T04:52:51.948Z,75.24
2019-05-16T04:55:05.033Z,75.11
2019-05-16T04:57:15.856Z,75.10
2019-05-16T04:59:26.739Z,75.24
2019-05-16T05:01:37.551Z,75.12
2019-05-16T05:04:02.073Z,75.02
2019-05-16T05:06:01.615Z,74.82
2019-05-16T05:08:14.516Z,74.47
2019-05-16T05:10:25.413Z,73.88
2019-05-16T05:12:36.245Z,73.53
2019-05-16T05:14:47.087Z,73.00
2019-05-16T05:16:57.960Z,73.74
2019-05-16T05:19:10.921Z,73.83
2019-05-16T05:21:21.554Z,73.79
2019-05-16T05:23:32.413Z,73.88
2019-05-16T05:25:43.389Z,72.42
2019-05-16T05:27:54.238Z,71.99
2019-05-16T05:30:05.444Z,71.74
2019-05-16T05:32:16.322Z,71.57
2019-05-16T05:34:27.142Z,71.74
2019-05-16T05:36:40.616Z,71.87
2019-05-16T05:39:06.265Z,71.42
2019-05-16T05:41:03.499Z,70.29
2019-05-16T05:43:14.343Z,69.95
2019-05-16T05:45:25.324Z,68.96
2019-05-16T05:47:36.178Z,68.20
2019-05-16T05:49:47.104Z,68.07
2019-05-16T05:52:00.655Z,68.09
2019-05-16T05:54:11.093Z,67.18
2019-05-16T05:56:22.048Z,67.05
2019-05-16T05:58:33.005Z,67.11
2019-05-16T06:00:43.958Z,66.99
2019-05-16T06:02:54.833Z,66.14
2019-05-16T06:05:05.983Z,66.54
2019-05-16T06:07:16.949Z,67.50
2019-05-16T06:09:32.589Z,67.38
2019-05-16T06:11:41.243Z,66.92
2019-05-16T06:13:52.089Z,66.92
2019-05-16T06:16:03.732Z,66.99
2019-05-16T06:18:14.591Z,65.43
2019-05-16T06:20:25.525Z,66.10
2019-05-16T06:22:36.397Z,65.63
2019-05-16T06:24:47.230Z,65.55
2019-05-16T06:26:58.240Z,65.53
2019-05-16T06:29:10.478Z,65.36
2019-05-16T06:31:22.315Z,64.83
2019-05-16T06:33:33.358Z,64.25
2019-05-16T06:35:44.306Z,64.03
2019-05-16T06:37:55.165Z,63.75
2019-05-16T06:40:06.513Z,63.72
2019-05-16T06:42:17.406Z,63.25
2019-05-16T06:44:30.665Z,63.20
2019-05-16T06:46:56.745Z,63.00
2019-05-16T06:48:53.835Z,63.24
2019-05-16T06:51:04.778Z,63.44
2019-05-16T06:53:15.672Z,63.92
2019-05-16T06:55:26.560Z,64.32
2019-05-16T06:57:37.550Z,61.89
2019-05-16T06:59:50.023Z,61.42
2019-05-16T07:02:01.080Z,61.67
2019-05-16T07:04:12.024Z,61.29
2019-05-16T07:06:47.607Z,61.88
2019-05-16T07:08:35.749Z,61.13
2019-05-16T07:10:47.480Z,60.40
2019-05-16T07:13:00.694Z,64.10
2019-05-16T07:15:12.558Z,61.24
2019-05-16T07:17:23.554Z,60.14
2019-05-16T07:19:35.506Z,60.10
2019-05-16T07:21:46.471Z,60.11
2019-05-16T07:23:57.325Z,60.15
2019-05-16T07:26:09.962Z,58.68
2019-05-16T07:28:21.306Z,58.34
2019-05-16T07:30:32.493Z,58.85
2019-05-16T07:32:43.331Z,59.04
2019-05-16T07:34:54.188Z,58.63
2019-05-16T07:37:05.075Z,58.12
2019-05-16T07:39:15.932Z,58.18
2019-05-16T07:41:26.781Z,57.99
2019-05-16T07:43:39.929Z,59.57
2019-05-16T07:45:51.304Z,58.80
2019-05-16T07:48:02.686Z,59.02
2019-05-16T07:50:13.851Z,59.05
2019-05-16T07:52:24.708Z,58.27
2019-05-16T07:54:35.559Z,58.36
2019-05-16T07:56:46.393Z,57.91
2019-05-16T07:58:57.238Z,57.27
2019-05-16T08:01:12.636Z,56.27
2019-05-16T08:03:20.877Z,56.72
2019-05-16T08:05:33.580Z,55.92
2019-05-16T08:07:44.534Z,55.47
2019-05-16T08:09:55.475Z,55.96
2019-05-16T08:12:06.445Z,54.01
2019-05-16T08:14:17.436Z,55.13
2019-05-16T08:16:30.604Z,55.46
2019-05-16T08:20:53.981Z,56.94
2019-05-16T08:23:04.850Z,56.74
2019-05-16T08:25:15.809Z,55.75
2019-05-16T08:27:26.644Z,55.27
2019-05-16T08:29:39.871Z,56.34
2019-05-16T08:31:52.805Z,56.44
2019-05-16T08:34:03.223Z,55.77
2019-05-16T08:36:14.115Z,56.00
2019-05-16T08:38:24.971Z,56.16
2019-05-16T08:41:01.275Z,56.62
2019-05-16T08:42:51.553Z,59.30
2019-05-16T08:45:02.173Z,56.49
2019-05-16T08:47:13.406Z,56.82
2019-05-16T08:49:24.365Z,57.54
2019-05-16T08:50:09.657Z,56.51
2019-05-16T08:51:35.204Z,55.57
2019-05-16T08:53:46.046Z,55.03
2019-05-16T08:55:57.016Z,58.04
2019-05-16T08:58:13.244Z,56.52
2019-05-16T09:00:21.909Z,54.74
2019-05-16T09:02:36.757Z,56.37
2019-05-16T09:04:45.871Z,55.22
2019-05-16T09:06:56.822Z,54.51
2019-05-16T09:09:26.491Z,53.51
2019-05-16T09:11:39.234Z,52.74
2019-05-16T09:13:33.559Z,51.66
2019-05-16T09:15:47.892Z,52.29
2019-05-16T09:17:58.091Z,51.83
2019-05-16T09:20:09.386Z,51.16
2019-05-16T09:22:20.379Z,50.54
2019-05-16T09:24:31.311Z,51.26
2019-05-16T09:26:42.151Z,49.96
2019-05-16T09:28:52.990Z,50.28
2019-05-16T09:31:04.038Z,49.26
2019-05-16T09:33:17.252Z,49.61
2019-05-16T09:35:28.172Z,48.01
2019-05-16T09:37:39.186Z,47.51
2019-05-16T09:39:50.131Z,47.08
2019-05-16T09:42:01.090Z,47.57
2019-05-16T09:44:12.049Z,49.59
2019-05-16T09:46:22.902Z,48.33
2019-05-16T09:48:33.861Z,47.22
2019-05-16T09:50:46.884Z,47.72
2019-05-16T09:52:58.102Z,47.57
2019-05-16T09:55:09.123Z,47.24
2019-05-16T09:57:19.973Z,46.49
2019-05-16T09:59:30.927Z,46.71
2019-05-16T10:01:41.868Z,45.49
2019-05-16T10:03:52.736Z,45.49
2019-05-16T10:06:03.671Z,46.85
2019-05-16T10:08:17.073Z,46.16
2019-05-16T10:10:27.517Z,48.06
2019-05-16T10:12:38.350Z,45.87
2019-05-16T10:14:49.330Z,45.88
2019-05-16T10:17:00.167Z,45.90
2019-05-16T10:19:11.137Z,45.75
2019-05-16T10:21:21.992Z,45.39
2019-05-16T10:23:32.873Z,46.90
2019-05-16T10:25:43.829Z,46.85
2019-05-16T10:27:54.762Z,45.65
2019-05-16T10:30:08.427Z,46.07
2019-05-16T10:32:19.267Z,45.27
2019-05-16T10:34:30.107Z,45.65
2019-05-16T10:36:41.055Z,46.45
2019-05-16T10:38:51.917Z,45.38
2019-05-16T10:41:02.968Z,44.47
2019-05-16T10:43:13.927Z,43.71
2019-05-16T10:45:27.153Z,42.17
2019-05-16T10:47:37.751Z,42.41
2019-05-16T10:49:48.597Z,43.23
2019-05-16T10:51:59.456Z,41.13
2019-05-16T10:54:13.978Z,41.00
2019-05-16T10:56:23.191Z,41.72
2019-05-16T10:58:37.982Z,42.11
2019-05-16T11:01:11.793Z,42.49
2019-05-16T11:03:00.233Z,43.54
2019-05-16T11:05:25.051Z,43.10
2019-05-16T11:07:29.429Z,43.66
2019-05-16T11:09:39.483Z,44.08
2019-05-16T11:11:50.436Z,44.88
2019-05-16T11:14:01.302Z,44.79
2019-05-16T11:16:12.159Z,46.78
2019-05-16T11:18:23.196Z,47.20
2019-05-16T11:20:34.092Z,44.31
2019-05-16T11:22:47.566Z,44.64
2019-05-16T11:24:57.696Z,45.14
2019-05-16T11:27:08.539Z,45.11
2019-05-16T11:29:19.382Z,45.07
2019-05-16T11:31:30.442Z,43.63
2019-05-16T11:33:41.305Z,42.75
2019-05-16T11:35:52.272Z,41.85
2019-05-16T11:38:03.224Z,41.19
2019-05-16T11:40:14.488Z,42.40
2019-05-16T11:42:27.847Z,41.42
2019-05-16T11:44:38.383Z,42.31
2019-05-16T11:46:49.441Z,42.47
2019-05-16T11:49:00.330Z,42.19
2019-05-16T11:51:11.306Z,43.13
2019-05-16T11:53:22.153Z,42.31
2019-05-16T11:55:35.458Z,42.44
2019-05-16T11:57:47.579Z,42.23
2019-05-16T11:59:58.750Z,44.50
2019-05-16T12:02:09.709Z,43.01
2019-05-16T12:04:20.663Z,42.93
2019-05-16T12:06:31.521Z,42.45
2019-05-16T12:08:42.561Z,42.33
2019-05-16T12:10:53.451Z,43.94
2019-05-16T12:13:07.368Z,44.39
2019-05-16T12:15:20.158Z,43.21
2019-05-16T12:17:30.610Z,41.25
2019-05-16T12:19:43.927Z,42.94
2019-05-16T12:21:56.967Z,42.89
2019-05-16T12:24:07.525Z,43.61
2019-05-16T12:26:18.510Z,42.74
2019-05-16T12:28:29.384Z,42.65
2019-05-16T12:30:40.640Z,41.64
2019-05-16T12:32:51.613Z,42.78
2019-05-16T12:35:06.323Z,42.33
2019-05-16T12:37:16.645Z,42.51
2019-05-16T12:39:27.489Z,40.54
2019-05-16T12:41:40.983Z,40.91
2019-05-16T12:43:53.615Z,42.24
2019-05-16T12:46:03.990Z,42.47
2019-05-16T12:48:19.984Z,42.55
2019-05-16T12:50:28.944Z,42.71
2019-05-16T12:52:40.210Z,43.61
2019-05-16T12:54:51.049Z,41.42
2019-05-16T12:57:02.024Z,41.45
2019-05-16T12:59:18.583Z,42.27
2019-05-16T13:01:30.687Z,42.68
2019-05-16T13:03:38.562Z,42.52
2019-05-16T13:05:49.674Z,41.69
2019-05-16T13:08:00.496Z,41.58
2019-05-16T13:10:13.258Z,42.67
2019-05-16T13:12:26.928Z,42.73
2019-05-16T13:14:40.070Z,42.65
2019-05-16T13:16:49.630Z,41.70
2019-05-16T13:19:00.501Z,42.90
2019-05-16T13:21:11.435Z,42.00
2019-05-16T13:23:22.324Z,41.53
2019-05-16T13:25:33.183Z,43.47
2019-05-16T13:27:44.258Z,41.72
2019-05-16T13:29:57.875Z,44.03
2019-05-16T13:32:08.374Z,44.11
2019-05-16T13:34:19.235Z,42.28
2019-05-16T13:36:30.269Z,41.82
2019-05-16T13:38:41.117Z,42.13
2019-05-16T13:40:52.016Z,42.98
2019-05-16T13:43:03.051Z,43.34
2019-05-16T13:45:14.017Z,42.83
2019-05-16T13:47:26.825Z,42.16
2019-05-16T13:49:38.418Z,42.20
2019-05-16T13:51:49.812Z,43.29
2019-05-16T13:54:00.742Z,43.05
2019-05-16T13:56:13.535Z,43.48
2019-05-16T13:58:24.602Z,45.76
2019-05-16T14:00:37.528Z,43.25
2019-05-16T14:02:48.387Z,43.55
2019-05-16T14:04:59.280Z,43.47
2019-05-16T14:07:10.142Z,43.97
2019-05-16T14:09:21.074Z,43.71
2019-05-16T14:11:31.941Z,42.61
2019-05-16T14:13:42.813Z,43.48
2019-05-16T14:15:53.662Z,44.85
2019-05-16T14:18:07.381Z,44.25
2019-05-16T14:20:18.306Z,43.32
2019-05-16T14:22:29.448Z,43.74
2019-05-16T14:24:40.390Z,45.11
2019-05-16T14:26:51.264Z,43.95
2019-05-16T14:29:02.166Z,45.97
2019-05-16T14:31:13.281Z,46.57
2019-05-16T14:33:24.136Z,45.75
2019-05-16T14:35:37.396Z,45.42
2019-05-16T14:37:47.872Z,45.48
2019-05-16T14:40:01.359Z,43.92
2019-05-16T14:42:11.706Z,44.15
2019-05-16T14:44:22.570Z,43.97
2019-05-16T14:46:33.435Z,44.40
2019-05-16T14:48:44.397Z,45.06
2019-05-16T14:50:57.441Z,44.73
2019-05-16T14:53:08.120Z,44.88
2019-05-16T14:55:19.080Z,43.64
2019-05-16T14:57:29.946Z,44.23
2019-05-16T14:59:40.816Z,46.21
2019-05-16T15:01:51.675Z,44.80
2019-05-16T15:04:02.694Z,44.49
2019-05-16T15:06:13.645Z,45.07
2019-05-16T15:08:24.531Z,44.35
2019-05-16T15:10:37.601Z,47.37
2019-05-16T15:12:48.368Z,45.77
2019-05-16T15:15:15.876Z,44.96
2019-05-16T15:17:12.268Z,44.03
2019-05-16T15:19:23.213Z,44.58
2019-05-16T15:21:34.160Z,45.31
2019-05-16T15:23:45.045Z,46.97
2019-05-16T15:25:56.002Z,46.37
2019-05-16T15:28:07.588Z,44.84
2019-05-16T15:30:19.431Z,44.41
2019-05-16T15:32:31.905Z,43.91
2019-05-16T15:34:42.946Z,44.00
2019-05-16T15:36:56.518Z,45.52
2019-05-16T15:39:08.079Z,44.74
2019-05-16T15:41:19.242Z,45.23
2019-05-16T15:43:30.207Z,45.91
2019-05-16T15:45:43.461Z,46.28
2019-05-16T15:47:59.625Z,46.01
2019-05-16T15:50:09.622Z,46.80
2019-05-16T15:52:20.605Z,43.63
2019-05-16T15:54:31.557Z,45.86
2019-05-16T15:56:46.700Z,46.49
2019-05-16T15:58:57.667Z,45.68
2019-05-16T16:01:08.641Z,46.23
2019-05-16T16:03:19.510Z,45.96
2019-05-16T16:05:30.360Z,45.01
2019-05-16T16:07:41.224Z,45.42
2019-05-16T16:09:52.059Z,45.47
2019-05-16T16:12:03.023Z,45.95
2019-05-16T16:14:14.001Z,45.81
2019-05-16T16:16:26.772Z,45.41
2019-05-16T16:18:37.968Z,45.85
2019-05-16T16:20:49.024Z,45.82
2019-05-16T16:22:59.942Z,46.14
2019-05-16T16:25:11.003Z,46.95
2019-05-16T16:27:21.939Z,46.56
2019-05-16T16:29:33.313Z,46.40
2019-05-16T16:31:44.541Z,46.46
2019-05-16T16:33:57.251Z,46.07
2019-05-16T16:36:08.185Z,46.04
2019-05-16T16:38:19.012Z,46.42
2019-05-16T16:40:30.134Z,46.90
2019-05-16T16:42:40.980Z,47.14
2019-05-16T16:44:51.836Z,47.17
2019-05-16T16:47:02.986Z,47.16
2019-05-16T16:49:14.080Z,47.95
2019-05-16T16:51:26.859Z,47.55
2019-05-16T16:53:38.154Z,46.74
2019-05-16T16:55:49.025Z,47.08
2019-05-16T16:57:59.927Z,46.97
2019-05-16T17:00:11.934Z,46.64
2019-05-16T17:02:23.935Z,47.23
2019-05-16T17:04:38.344Z,47.10
2019-05-16T17:06:47.703Z,47.13
2019-05-16T17:08:58.572Z,47.08
2019-05-16T17:11:09.560Z,47.00
2019-05-16T17:13:20.495Z,47.22
2019-05-16T17:15:31.529Z,47.47
2019-05-16T17:17:42.381Z,49.44
2019-05-16T17:19:53.262Z,48.31
2019-05-16T17:22:14.611Z,48.58
2019-05-16T17:24:17.108Z,48.51
2019-05-16T17:26:28.080Z,48.37
2019-05-16T17:28:39.065Z,48.23
2019-05-16T17:30:49.955Z,48.18
2019-05-16T17:33:00.806Z,48.47
2019-05-16T17:35:12.917Z,48.15
2019-05-16T17:37:23.854Z,48.15
2019-05-16T17:39:36.781Z,48.75
2019-05-16T17:41:54.401Z,49.84
2019-05-16T17:44:00.275Z,49.61
2019-05-16T17:46:11.378Z,50.68
2019-05-16T17:48:22.229Z,50.53
2019-05-16T17:50:33.309Z,50.51
2019-05-16T17:52:44.388Z,49.82
2019-05-16T17:54:55.356Z,50.66
2019-05-16T17:57:07.431Z,50.51
2019-05-16T17:59:18.577Z,50.27
2019-05-16T18:01:29.490Z,49.99
2019-05-16T18:03:40.483Z,49.99
2019-05-16T18:05:51.507Z,49.88
2019-05-16T18:08:02.466Z,50.06
2019-05-16T18:10:15.804Z,49.96
2019-05-16T18:12:27.527Z,50.13
2019-05-16T18:14:38.677Z,50.41
2019-05-16T18:16:58.285Z,50.27
2019-05-16T18:19:02.730Z,50.06
2019-05-16T18:21:13.780Z,50.09
2019-05-16T18:23:24.682Z,50.26
2019-05-16T18:25:36.440Z,50.63
2019-05-16T18:27:47.653Z,50.68
2019-05-16T18:29:58.507Z,51.03
2019-05-16T18:32:09.504Z,51.77
2019-05-16T18:34:20.385Z,52.38
2019-05-16T18:36:31.412Z,53.70
2019-05-16T18:38:42.378Z,53.49
2019-05-16T18:40:53.262Z,53.37
2019-05-16T18:43:04.351Z,53.48
2019-05-16T18:45:16.616Z,53.63
2019-05-16T18:47:27.700Z,54.08
2019-05-16T18:49:38.664Z,54.24
2019-05-16T18:51:49.608Z,53.89
2019-05-16T18:54:00.592Z,53.90
2019-05-16T18:56:11.573Z,53.01
2019-05-16T18:58:22.587Z,52.75
2019-05-16T19:00:33.546Z,52.64
2019-05-16T19:02:44.436Z,52.66
2019-05-16T19:04:57.788Z,52.55
2019-05-16T19:07:08.410Z,54.29
2019-05-16T19:09:19.458Z,54.84
2019-05-16T19:11:30.323Z,54.91
2019-05-16T19:13:41.214Z,55.58
2019-05-16T19:15:52.056Z,57.21
2019-05-16T19:18:03.027Z,58.46
2019-05-16T19:20:14.346Z,59.35
2019-05-16T19:22:26.454Z,59.49
2019-05-16T19:24:37.536Z,59.37
2019-05-16T19:26:48.616Z,57.39
2019-05-16T19:28:59.453Z,56.47
2019-05-16T19:31:10.500Z,56.54
2019-05-16T19:33:21.524Z,55.95
2019-05-16T19:35:32.584Z,56.84
2019-05-16T19:37:43.553Z,55.74
2019-05-16T19:39:56.813Z,56.10
2019-05-16T19:42:07.423Z,56.15
2019-05-16T19:44:18.299Z,56.27
2019-05-16T19:46:29.398Z,56.66
2019-05-16T19:48:40.406Z,56.78
2019-05-16T19:50:51.397Z,57.02
2019-05-16T19:53:02.482Z,57.40
2019-05-16T19:55:13.858Z,57.64
2019-05-16T19:57:26.604Z,58.09
2019-05-16T19:59:37.611Z,58.24
2019-05-16T20:01:48.581Z,58.58
2019-05-16T20:03:59.625Z,58.59
2019-05-16T20:06:10.616Z,59.13
2019-05-16T20:08:21.562Z,59.25
2019-05-16T20:10:32.550Z,59.31
2019-05-16T20:12:43.504Z,59.56
2019-05-16T20:15:07.696Z,60.54
2019-05-16T20:17:07.509Z,60.58
2019-05-16T20:19:18.540Z,60.71
2019-05-16T20:21:29.525Z,61.11
2019-05-16T20:23:40.394Z,61.06
2019-05-16T20:25:51.287Z,61.10
2019-05-16T20:28:02.254Z,61.17
2019-05-16T20:30:13.534Z,61.35
2019-05-16T20:32:24.443Z,61.54
2019-05-16T20:34:37.150Z,61.81
2019-05-16T20:36:48.167Z,62.18
2019-05-16T20:38:59.049Z,62.29
2019-05-16T20:41:10.011Z,62.62
2019-05-16T20:43:20.983Z,62.99
2019-05-16T20:45:31.835Z,63.33
2019-05-16T20:47:42.703Z,63.64
2019-05-16T20:49:53.657Z,64.10
2019-05-16T20:52:06.917Z,64.65
2019-05-16T20:54:17.614Z,64.71
2019-05-16T20:56:28.517Z,65.55
2019-05-16T20:58:39.349Z,65.11
2019-05-16T21:00:50.309Z,65.09
2019-05-16T21:03:01.205Z,65.51
2019-05-16T21:05:12.185Z,65.47
2019-05-16T21:07:23.064Z,65.46
2019-05-16T21:09:33.906Z,66.03
2019-05-16T21:11:46.850Z,66.34
2019-05-16T21:13:57.524Z,66.73
2019-05-16T21:16:08.380Z,67.19
2019-05-16T21:18:19.345Z,66.98
2019-05-16T21:20:30.296Z,66.84
2019-05-16T21:22:41.325Z,67.06
2019-05-16T21:24:52.290Z,67.28
2019-05-16T21:27:03.265Z,67.11
2019-05-16T21:29:16.512Z,67.17
2019-05-16T21:31:27.671Z,67.37
2019-05-16T21:33:38.576Z,67.33
2019-05-16T21:35:49.636Z,67.45
2019-05-16T21:38:00.504Z,67.49
2019-05-16T21:40:11.349Z,67.50
2019-05-16T21:42:22.297Z,67.77
2019-05-16T21:44:33.174Z,67.60
2019-05-16T21:46:44.232Z,67.84
2019-05-16T21:48:56.709Z,68.08
2019-05-16T21:51:08.048Z,68.13
2019-05-16T21:53:19.087Z,68.17
2019-05-16T21:55:30.094Z,68.34
2019-05-16T21:57:41.115Z,68.22
2019-05-16T21:59:52.085Z,68.37
2019-05-16T22:02:03.118Z,68.49
2019-05-16T22:04:13.981Z,68.85
2019-05-16T22:06:24.969Z,68.90
2019-05-16T22:08:36.341Z,69.33
2019-05-16T22:10:47.470Z,69.50
2019-05-16T22:12:58.407Z,69.45
2019-05-16T22:15:09.486Z,69.47
2019-05-16T22:17:20.332Z,69.61
2019-05-16T22:19:31.308Z,69.81
2019-05-16T22:21:42.202Z,70.17
2019-05-16T22:23:53.249Z,70.29
2019-05-16T22:26:04.419Z,70.35
2019-05-16T22:28:17.176Z,70.47
2019-05-16T22:30:28.320Z,70.72
2019-05-16T22:32:39.483Z,70.80
2019-05-16T22:34:50.349Z,70.64
2019-05-16T22:37:01.448Z,70.79
2019-05-16T22:39:12.257Z,70.93
2019-05-16T22:41:23.233Z,70.85
2019-05-16T22:43:34.082Z,70.79
2019-05-16T22:45:46.775Z,70.95
2019-05-16T22:47:57.810Z,70.82
2019-05-16T22:50:09.194Z,70.78
2019-05-16T22:52:20.174Z,70.79
2019-05-16T22:54:31.002Z,70.84
2019-05-16T22:56:41.876Z,71.35
2019-05-16T22:58:52.753Z,71.70
2019-05-16T23:01:03.828Z,71.73
2019-05-16T23:03:17.232Z,71.69
2019-05-16T23:05:27.713Z,71.68
2019-05-16T23:07:38.601Z,71.58
2019-05-16T23:09:49.530Z,71.90
2019-05-16T23:12:00.574Z,72.03
2019-05-16T23:14:11.409Z,72.03
2019-05-16T23:16:22.284Z,72.31
2019-05-16T23:18:33.103Z,72.34
2019-05-16T23:20:43.954Z,72.71
2019-05-16T23:22:56.275Z,72.86
2019-05-16T23:25:07.955Z,73.61
2019-05-16T23:27:18.858Z,73.81
2019-05-16T23:29:29.854Z,73.80
2019-05-16T23:31:40.705Z,74.04
2019-05-16T23:33:51.566Z,74.25
2019-05-16T23:36:02.500Z,74.37
2019-05-16T23:38:19.408Z,74.39
2019-05-16T23:40:26.243Z,74.42
2019-05-16T23:42:37.279Z,74.45
2019-05-16T23:44:48.264Z,74.44
2019-05-16T23:46:59.275Z,74.29
2019-05-16T23:49:10.213Z,74.16
2019-05-16T23:51:21.062Z,74.66
2019-05-16T23:53:31.935Z,74.69
2019-05-16T23:55:42.783Z,74.68
2019-05-16T23:57:53.660Z,75.11
